createdAt,value
2019-05-13T00:01:56.170Z,22.70
2019-05-13T00:04:26.523Z,22.70
2019-05-13T00:06:57.735Z,23.10
2019-05-13T00:09:28.758Z,23.80
2019-05-13T00:11:58.989Z,24.00
2019-05-13T00:14:29.158Z,24.00
2019-05-13T00:16:59.304Z,24.70
2019-05-13T00:19:29.414Z,24.20
2019-05-13T00:21:59.581Z,24.20
2019-05-13T00:24:29.758Z,24.10
2019-05-13T00:27:00.350Z,24.10
2019-05-13T00:29:30.550Z,24.10
2019-05-13T00:32:00.734Z,23.80
2019-05-13T00:34:31.024Z,23.70
2019-05-13T00:37:08.849Z,23.50
2019-05-13T00:39:33.741Z,23.50
2019-05-13T00:42:04.432Z,23.70
2019-05-13T00:44:34.915Z,23.40
2019-05-13T00:47:05.194Z,23.40
2019-05-13T00:49:35.557Z,23.40
2019-05-13T00:52:05.752Z,23.40
2019-05-13T00:54:36.152Z,23.30
2019-05-13T00:57:06.240Z,23.40
2019-05-13T00:59:36.317Z,23.50
2019-05-13T01:02:06.980Z,23.60
2019-05-13T01:04:37.344Z,23.60
2019-05-13T01:07:15.389Z,23.60
2019-05-13T01:09:39.394Z,23.70
2019-05-13T01:12:09.845Z,23.70
2019-05-13T01:14:40.006Z,24.20
2019-05-13T01:17:10.740Z,24.00
2019-05-13T01:19:43.210Z,24.00
2019-05-13T01:22:13.485Z,23.90
2019-05-13T01:24:44.311Z,23.80
2019-05-13T01:27:16.631Z,23.80
2019-05-13T01:29:46.803Z,23.70
2019-05-13T01:32:16.936Z,23.60
2019-05-13T01:34:47.118Z,23.70
2019-05-13T01:37:17.428Z,23.90
2019-05-13T01:39:48.094Z,24.00
2019-05-13T01:42:18.714Z,24.40
2019-05-13T01:44:48.876Z,24.70
2019-05-13T01:47:18.946Z,24.90
2019-05-13T01:49:49.052Z,25.90
2019-05-13T01:52:19.148Z,25.60
2019-05-13T01:54:49.552Z,26.00
2019-05-13T01:57:19.759Z,26.40
2019-05-13T01:59:49.879Z,26.70
2019-05-13T02:02:20.046Z,26.90
2019-05-13T02:04:50.177Z,27.10
2019-05-13T02:07:20.277Z,27.10
2019-05-13T02:09:53.410Z,27.20
2019-05-13T02:12:26.773Z,27.10
2019-05-13T02:14:56.979Z,27.20
2019-05-13T02:17:27.155Z,27.40
2019-05-13T02:19:57.243Z,27.50
2019-05-13T02:22:27.549Z,27.50
2019-05-13T02:24:57.763Z,27.70
2019-05-13T02:27:27.849Z,27.70
2019-05-13T02:29:57.955Z,27.60
2019-05-13T02:32:28.098Z,27.70
2019-05-13T02:34:58.361Z,27.70
2019-05-13T02:37:29.714Z,27.90
2019-05-13T02:40:03.705Z,27.60
2019-05-13T02:42:33.802Z,27.40
2019-05-13T02:45:04.089Z,27.20
2019-05-13T02:47:34.350Z,27.10
2019-05-13T02:50:05.445Z,26.80
2019-05-13T02:52:35.882Z,26.50
2019-05-13T02:55:06.219Z,26.30
2019-05-13T02:57:36.323Z,26.10
2019-05-13T03:00:07.458Z,25.70
2019-05-13T03:02:37.820Z,25.20
2019-05-13T03:05:08.439Z,25.50
2019-05-13T03:07:42.215Z,25.30
2019-05-13T03:10:13.519Z,25.40
2019-05-13T03:12:43.939Z,25.60
2019-05-13T03:15:14.950Z,25.40
2019-05-13T03:18:04.227Z,25.60
2019-05-13T03:20:35.572Z,25.40
2019-05-13T03:23:06.351Z,25.50
2019-05-13T03:25:36.681Z,25.10
2019-05-13T03:28:07.125Z,25.10
2019-05-13T03:30:38.273Z,25.10
2019-05-13T03:33:11.504Z,24.70
2019-05-13T03:35:45.399Z,24.70
2019-05-13T03:38:12.929Z,24.30
2019-05-13T03:40:47.345Z,24.30
2019-05-13T03:43:19.193Z,24.50
2019-05-13T03:45:52.636Z,24.90
2019-05-13T03:48:23.804Z,25.00
2019-05-13T03:50:55.120Z,24.50
2019-05-13T03:53:25.406Z,24.80
2019-05-13T03:55:55.790Z,24.90
2019-05-13T03:58:26.699Z,25.60
2019-05-13T04:00:57.140Z,25.20
2019-05-13T04:03:27.239Z,25.90
2019-05-13T04:05:58.863Z,26.30
2019-05-13T04:08:29.094Z,26.50
2019-05-13T04:11:02.670Z,26.50
2019-05-13T04:13:33.441Z,26.60
2019-05-13T04:16:04.211Z,27.20
2019-05-13T04:18:35.001Z,27.10
2019-05-13T04:21:05.443Z,27.60
2019-05-13T04:23:35.683Z,28.50
2019-05-13T04:26:05.844Z,29.00
2019-05-13T04:28:36.196Z,29.30
2019-05-13T04:31:06.489Z,29.80
2019-05-13T04:33:36.549Z,30.10
2019-05-13T04:36:07.807Z,30.70
2019-05-13T04:38:39.602Z,31.50
2019-05-13T04:41:12.155Z,31.20
2019-05-13T04:43:43.829Z,31.50
2019-05-13T04:46:14.939Z,32.00
2019-05-13T04:48:45.434Z,32.60
2019-05-13T04:51:15.592Z,34.50
2019-05-13T04:53:45.818Z,33.70
2019-05-13T04:56:15.929Z,53.80
2019-05-13T04:58:46.497Z,1.00
2019-05-13T05:01:52.259Z,1.00
2019-05-13T05:04:28.721Z,1.00
2019-05-13T05:07:03.142Z,1.00
2019-05-13T05:13:06.552Z,1.00
2019-05-13T05:16:12.975Z,1.00
2019-05-13T05:19:02.077Z,1.00
2019-05-13T05:21:38.958Z,1.00
2019-05-13T05:24:23.490Z,1.00
2019-05-13T05:27:32.479Z,1.00
2019-05-13T05:30:26.416Z,1.00
2019-05-13T05:33:46.760Z,1.00
2019-05-13T05:36:58.292Z,1.00
2019-05-13T05:39:31.386Z,1.00
2019-05-13T05:42:02.333Z,1.00
2019-05-13T05:44:33.083Z,1.00
2019-05-13T05:47:04.824Z,1.00
2019-05-13T05:49:36.363Z,1.00
2019-05-13T05:52:07.098Z,1.00
2019-05-13T05:54:39.168Z,1.00
2019-05-13T05:57:12.173Z,1.00
2019-05-13T05:59:42.864Z,1.00
2019-05-13T06:02:13.196Z,1.00
2019-05-13T06:04:44.093Z,1.00
2019-05-13T06:07:14.464Z,1.00
2019-05-13T06:09:44.701Z,1.00
2019-05-13T06:12:15.319Z,1.00
2019-05-13T06:14:47.132Z,1.00
2019-05-13T06:17:17.402Z,1.00
2019-05-13T06:19:47.843Z,1.00
2019-05-13T06:22:17.915Z,1.00
2019-05-13T06:24:48.077Z,1.00
2019-05-13T06:27:18.145Z,1.00
2019-05-13T06:29:49.312Z,1.00
2019-05-13T06:32:25.461Z,1.00
2019-05-13T06:34:52.588Z,1.00
2019-05-13T06:37:22.876Z,1.00
2019-05-13T06:39:55.449Z,1.00
2019-05-13T06:42:25.668Z,1.00
2019-05-13T06:44:55.809Z,1.00
2019-05-13T06:47:25.995Z,1.00
2019-05-13T06:49:56.033Z,1.00
2019-05-13T06:52:26.117Z,1.00
2019-05-13T06:54:57.430Z,1.00
2019-05-13T06:57:27.737Z,1.00
2019-05-13T06:59:57.909Z,1.00
2019-05-13T07:02:28.178Z,1.00
2019-05-13T07:04:58.287Z,1.00
2019-05-13T07:07:28.340Z,1.00
2019-05-13T07:09:58.401Z,1.00
2019-05-13T07:12:31.237Z,1.00
2019-05-13T07:15:02.502Z,1.00
2019-05-13T07:17:32.457Z,1.00
2019-05-13T07:20:02.949Z,1.00
2019-05-13T07:22:33.172Z,1.00
2019-05-13T07:25:03.272Z,1.00
2019-05-13T07:27:33.360Z,1.00
2019-05-13T07:30:03.512Z,1.00
2019-05-13T07:32:33.923Z,1.00
2019-05-13T07:35:04.504Z,1.00
2019-05-13T07:37:39.163Z,1.00
2019-05-13T07:40:11.578Z,1.00
2019-05-13T07:42:42.146Z,1.00
2019-05-13T07:45:12.922Z,1.00
2019-05-13T07:47:43.028Z,1.00
2019-05-13T07:50:14.724Z,1.00
2019-05-13T07:52:45.129Z,1.00
2019-05-13T07:55:15.737Z,1.00
2019-05-13T07:57:46.135Z,1.00
2019-05-13T08:00:16.427Z,1.00
2019-05-13T08:02:46.627Z,1.00
2019-05-13T08:05:17.449Z,1.00
2019-05-13T08:07:47.527Z,1.00
2019-05-13T08:10:17.981Z,1.00
2019-05-13T08:12:48.151Z,1.00
2019-05-13T08:15:18.302Z,1.00
2019-05-13T08:17:48.476Z,1.00
2019-05-13T08:20:18.619Z,1.00
2019-05-13T08:22:48.717Z,1.00
2019-05-13T08:25:18.881Z,1.00
2019-05-13T08:27:51.451Z,1.00
2019-05-13T08:30:22.764Z,1.00
2019-05-13T08:32:53.181Z,1.00
2019-05-13T08:35:23.438Z,1.00
2019-05-13T08:37:53.603Z,1.00
2019-05-13T08:40:23.766Z,1.00
2019-05-13T08:42:54.445Z,1.00
2019-05-13T08:45:24.443Z,1.00
2019-05-13T08:47:54.545Z,1.00
2019-05-13T08:50:25.327Z,1.00
2019-05-13T08:52:55.762Z,1.00
2019-05-13T08:55:25.860Z,1.00
2019-05-13T08:57:56.248Z,1.00
2019-05-13T09:00:49.125Z,1.00
2019-05-13T09:03:21.529Z,1.00
2019-05-13T09:05:52.539Z,1.00
2019-05-13T09:08:24.273Z,1.00
2019-05-13T09:10:57.034Z,1.00
2019-05-13T09:13:26.556Z,1.00
2019-05-13T09:16:02.429Z,1.00
2019-05-13T09:18:32.567Z,1.00
2019-05-13T09:21:06.456Z,1.00
2019-05-13T09:23:36.734Z,1.00
2019-05-13T09:26:06.893Z,1.00
2019-05-13T09:28:38.283Z,1.00
2019-05-13T09:31:08.493Z,1.00
2019-05-13T09:33:38.631Z,1.00
2019-05-13T09:36:08.786Z,1.00
2019-05-13T09:38:38.876Z,1.00
2019-05-13T09:41:09.045Z,1.00
2019-05-13T09:43:41.835Z,1.00
2019-05-13T09:46:11.928Z,1.00
2019-05-13T09:48:42.671Z,1.00
2019-05-13T09:51:13.883Z,1.00
2019-05-13T09:53:43.946Z,1.00
2019-05-13T09:56:15.147Z,1.00
2019-05-13T09:58:45.543Z,1.00
2019-05-13T10:01:15.738Z,1.00
2019-05-13T10:03:54.911Z,1.00
2019-05-13T10:06:17.726Z,1.00
2019-05-13T10:08:47.924Z,1.00
2019-05-13T10:11:18.020Z,1.00
2019-05-13T10:13:48.244Z,1.00
2019-05-13T10:16:18.749Z,1.00
2019-05-13T10:18:48.895Z,1.00
2019-05-13T10:21:21.809Z,1.00
2019-05-13T10:23:52.217Z,1.00
2019-05-13T10:26:22.928Z,1.00
2019-05-13T10:28:53.764Z,1.00
2019-05-13T10:31:23.913Z,1.00
2019-05-13T10:33:54.176Z,1.00
2019-05-13T10:36:24.452Z,1.00
2019-05-13T10:38:54.628Z,1.00
2019-05-13T10:41:25.270Z,1.00
2019-05-13T10:43:55.582Z,1.00
2019-05-13T10:46:25.775Z,1.00
2019-05-13T10:48:55.846Z,1.00
2019-05-13T10:51:26.026Z,1.00
2019-05-13T10:53:59.489Z,1.00
2019-05-13T10:56:28.183Z,1.00
2019-05-13T10:58:58.524Z,1.00
2019-05-13T11:01:28.685Z,1.00
2019-05-13T11:03:58.923Z,1.00
2019-05-13T11:06:29.268Z,1.00
2019-05-13T11:09:01.662Z,1.00
2019-05-13T11:11:32.962Z,1.00
2019-05-13T11:14:10.863Z,1.00
2019-05-13T11:16:35.850Z,1.00
2019-05-13T11:19:06.043Z,1.00
2019-05-13T11:21:36.424Z,1.00
2019-05-13T11:24:08.575Z,1.00
2019-05-13T11:26:38.857Z,1.00
2019-05-13T11:29:09.015Z,1.00
2019-05-13T11:31:39.113Z,1.00
2019-05-13T11:34:09.239Z,1.00
2019-05-13T11:36:42.687Z,1.00
2019-05-13T11:39:12.977Z,1.00
2019-05-13T11:41:43.248Z,1.00
2019-05-13T11:44:16.791Z,1.00
2019-05-13T11:46:45.301Z,1.00
2019-05-13T11:49:15.488Z,1.00
2019-05-13T11:51:46.243Z,1.00
2019-05-13T11:54:16.376Z,1.00
2019-05-13T11:56:50.435Z,1.00
2019-05-13T11:59:18.264Z,1.00
2019-05-13T12:01:48.504Z,1.00
2019-05-13T12:04:18.865Z,1.00
2019-05-13T12:06:53.610Z,1.00
2019-05-13T12:09:22.240Z,1.00
2019-05-13T12:11:53.055Z,1.00
2019-05-13T12:14:43.630Z,1.00
2019-05-13T12:16:55.088Z,1.00
2019-05-13T12:19:25.171Z,1.00
2019-05-13T12:21:55.473Z,1.00
2019-05-13T12:24:27.089Z,1.00
2019-05-13T12:26:57.195Z,1.00
2019-05-13T12:29:28.439Z,1.00
2019-05-13T12:31:59.131Z,1.00
2019-05-13T12:34:36.557Z,1.00
2019-05-13T12:37:03.264Z,1.00
2019-05-13T12:39:33.097Z,1.00
2019-05-13T12:42:03.641Z,1.00
2019-05-13T12:44:34.298Z,1.00
2019-05-13T12:47:04.493Z,1.00
2019-05-13T12:49:36.679Z,1.00
2019-05-13T12:52:06.684Z,1.00
2019-05-13T12:54:36.849Z,1.00
2019-05-13T12:57:12.120Z,1.00
2019-05-13T12:59:42.662Z,1.00
2019-05-13T13:02:13.443Z,1.00
2019-05-13T13:05:07.896Z,1.00
2019-05-13T13:07:15.328Z,1.00
2019-05-13T13:09:45.522Z,1.00
2019-05-13T13:12:15.694Z,1.00
2019-05-13T13:14:45.855Z,1.00
2019-05-13T13:17:16.333Z,1.00
2019-05-13T13:19:46.526Z,1.00
2019-05-13T13:22:16.703Z,1.00
2019-05-13T13:24:51.945Z,1.00
2019-05-13T13:27:28.451Z,1.00
2019-05-13T13:30:02.258Z,1.00
2019-05-13T13:32:24.612Z,1.00
2019-05-13T13:34:55.658Z,1.00
2019-05-13T13:37:26.101Z,1.00
2019-05-13T13:39:56.697Z,1.00
2019-05-13T13:42:26.772Z,1.00
2019-05-13T13:44:56.965Z,1.00
2019-05-13T13:47:27.335Z,1.00
2019-05-13T13:49:57.569Z,1.00
2019-05-13T13:52:27.866Z,1.00
2019-05-13T13:55:03.310Z,1.00
2019-05-13T13:57:32.533Z,1.00
2019-05-13T14:02:36.872Z,1.00
2019-05-13T14:05:08.310Z,1.00
2019-05-13T14:07:39.191Z,1.00
2019-05-13T14:10:11.807Z,1.00
2019-05-13T14:12:42.999Z,1.00
2019-05-13T14:15:14.093Z,1.00
2019-05-13T14:17:44.440Z,1.00
2019-05-13T14:20:15.928Z,1.00
2019-05-13T14:22:46.272Z,1.00
2019-05-13T14:25:16.858Z,1.00
2019-05-13T14:27:48.225Z,1.00
2019-05-13T14:30:18.902Z,1.00
2019-05-13T14:32:51.685Z,1.00
2019-05-13T14:35:22.035Z,1.00
2019-05-13T14:37:52.666Z,1.00
2019-05-13T14:40:22.810Z,1.00
2019-05-13T14:42:52.916Z,1.00
2019-05-13T14:45:23.957Z,1.00
2019-05-13T14:47:54.644Z,1.00
2019-05-13T14:50:24.750Z,1.00
2019-05-13T14:52:54.856Z,1.00
2019-05-13T14:55:25.025Z,1.00
2019-05-13T14:57:55.204Z,1.00
2019-05-13T15:00:25.644Z,1.00
2019-05-13T15:02:55.734Z,1.00
2019-05-13T15:05:25.909Z,1.00
2019-05-13T15:07:56.083Z,1.00
2019-05-13T15:10:26.363Z,1.00
2019-05-13T15:12:56.916Z,1.00
2019-05-13T15:15:28.320Z,1.00
2019-05-13T15:18:01.243Z,1.00
2019-05-13T15:20:33.126Z,1.00
2019-05-13T15:23:03.692Z,1.00
2019-05-13T15:25:34.375Z,1.00
2019-05-13T15:28:04.570Z,1.00
2019-05-13T15:30:34.835Z,1.00
2019-05-13T15:33:04.986Z,1.00
2019-05-13T15:35:35.161Z,1.00
2019-05-13T15:38:05.420Z,1.00
2019-05-13T15:40:35.839Z,1.00
2019-05-13T15:43:06.045Z,1.00
2019-05-13T15:45:36.616Z,1.00
2019-05-13T15:48:07.123Z,1.00
2019-05-13T15:50:37.370Z,1.00
2019-05-13T15:53:08.070Z,1.00
2019-05-13T15:55:38.235Z,1.00
2019-05-13T15:58:08.507Z,1.00
2019-05-13T16:00:38.893Z,1.00
2019-05-13T16:03:09.093Z,1.00
2019-05-13T16:05:39.267Z,1.00
2019-05-13T16:08:11.981Z,1.00
2019-05-13T16:10:42.799Z,1.00
2019-05-13T16:13:13.344Z,1.00
2019-05-13T16:15:43.757Z,1.00
2019-05-13T16:18:14.089Z,1.00
2019-05-13T16:20:45.425Z,1.00
2019-05-13T16:23:16.131Z,1.00
2019-05-13T16:25:46.290Z,1.00
2019-05-13T16:28:17.837Z,1.00
2019-05-13T16:30:48.008Z,1.00
2019-05-13T16:33:19.686Z,1.00
2019-05-13T16:35:51.697Z,1.00
2019-05-13T16:38:22.271Z,1.00
2019-05-13T16:40:52.492Z,1.00
2019-05-13T16:43:22.902Z,1.00
2019-05-13T16:45:53.571Z,1.00
2019-05-13T16:48:23.731Z,1.00
2019-05-13T16:50:54.022Z,1.00
2019-05-13T16:53:25.996Z,1.00
2019-05-13T16:55:56.235Z,1.00
2019-05-13T16:58:26.741Z,1.00
2019-05-13T17:00:57.185Z,1.00
2019-05-13T17:03:27.363Z,1.00
2019-05-13T17:05:57.807Z,1.00
2019-05-13T17:08:28.216Z,1.00
2019-05-13T17:10:58.474Z,1.00
2019-05-13T17:13:28.655Z,1.00
2019-05-13T17:15:58.824Z,1.00
2019-05-13T17:18:29.412Z,1.00
2019-05-13T17:21:01.450Z,1.00
2019-05-13T17:23:33.583Z,1.00
2019-05-13T17:26:04.483Z,1.00
2019-05-13T17:28:34.679Z,1.00
2019-05-13T17:31:04.812Z,1.00
2019-05-13T17:33:35.284Z,1.00
2019-05-13T17:36:05.451Z,1.00
2019-05-13T17:38:35.687Z,1.00
2019-05-13T17:41:06.026Z,1.00
2019-05-13T17:43:36.277Z,1.00
2019-05-13T17:46:06.774Z,1.00
2019-05-13T17:48:37.075Z,1.00
2019-05-13T17:51:07.506Z,1.00
2019-05-13T17:53:38.181Z,1.00
2019-05-13T17:56:08.335Z,1.00
2019-05-13T17:58:38.432Z,1.00
2019-05-13T18:01:08.584Z,1.00
2019-05-13T18:03:41.072Z,1.00
2019-05-13T18:06:11.496Z,1.00
2019-05-13T18:08:41.904Z,1.00
2019-05-13T18:11:12.416Z,1.00
2019-05-13T18:13:43.739Z,1.00
2019-05-13T18:16:14.279Z,1.00
2019-05-13T18:18:47.526Z,1.00
2019-05-13T18:21:16.453Z,1.00
2019-05-13T18:23:46.908Z,1.00
2019-05-13T18:26:17.158Z,1.00
2019-05-13T18:28:47.559Z,1.00
2019-05-13T18:31:17.779Z,1.00
2019-05-13T18:33:48.150Z,1.00
2019-05-13T18:36:18.626Z,1.00
2019-05-13T18:38:48.908Z,1.00
2019-05-13T18:41:21.208Z,1.00
2019-05-13T18:43:54.599Z,1.00
2019-05-13T18:46:23.991Z,1.00
2019-05-13T18:48:59.095Z,1.00
2019-05-13T18:51:26.684Z,1.00
2019-05-13T18:53:56.856Z,1.00
2019-05-13T18:56:27.042Z,1.00
2019-05-13T18:58:57.267Z,1.00
2019-05-13T19:01:27.717Z,1.00
2019-05-13T19:03:57.986Z,1.00
2019-05-13T19:06:28.228Z,1.00
2019-05-13T19:08:58.624Z,1.00
2019-05-13T19:11:28.686Z,1.00
2019-05-13T19:14:01.023Z,1.00
2019-05-13T19:16:31.934Z,1.00
2019-05-13T19:19:12.419Z,1.00
2019-05-13T19:21:36.643Z,1.00
2019-05-13T19:24:06.905Z,1.00
2019-05-13T19:26:37.075Z,1.00
2019-05-13T19:29:07.291Z,1.00
2019-05-13T19:31:37.762Z,1.00
2019-05-13T19:34:08.608Z,1.00
2019-05-13T19:36:38.773Z,1.00
2019-05-13T19:39:11.321Z,1.00
2019-05-13T19:41:42.352Z,1.00
2019-05-13T19:44:12.746Z,1.00
2019-05-13T19:46:42.871Z,1.00
2019-05-13T19:49:28.299Z,1.00
2019-05-13T19:51:45.090Z,1.00
2019-05-13T19:54:15.260Z,1.00
2019-05-13T19:56:45.482Z,1.00
2019-05-13T19:59:16.163Z,1.00
2019-05-13T20:01:46.312Z,1.00
2019-05-13T20:04:16.752Z,1.00
2019-05-13T20:06:48.133Z,1.00
2019-05-13T20:09:18.425Z,1.00
2019-05-13T20:11:54.966Z,1.00
2019-05-13T20:14:22.417Z,1.00
2019-05-13T20:16:52.999Z,1.00
2019-05-13T20:19:23.314Z,1.00
2019-05-13T20:21:54.026Z,1.00
2019-05-13T20:24:25.232Z,1.00
2019-05-13T20:26:55.394Z,1.00
2019-05-13T20:29:25.839Z,1.00
2019-05-13T20:31:56.042Z,1.00
2019-05-13T20:34:26.250Z,1.00
2019-05-13T20:36:56.486Z,1.00
2019-05-13T20:39:28.859Z,1.00
2019-05-13T20:42:01.121Z,1.00
2019-05-13T20:44:31.474Z,1.00
2019-05-13T20:47:02.275Z,1.00
2019-05-13T20:49:32.477Z,1.00
2019-05-13T20:52:02.782Z,1.00
2019-05-13T20:54:33.014Z,1.00
2019-05-13T20:57:04.718Z,1.00
2019-05-13T20:59:35.056Z,1.00
2019-05-13T21:02:05.312Z,1.00
2019-05-13T21:04:35.658Z,1.00
2019-05-13T21:07:06.084Z,1.00
2019-05-13T21:09:36.301Z,1.00
2019-05-13T21:12:06.475Z,1.00
2019-05-13T21:14:38.492Z,1.00
2019-05-13T21:17:08.447Z,1.00
2019-05-13T21:19:39.596Z,1.00
2019-05-13T21:22:11.915Z,1.00
2019-05-13T21:24:44.485Z,1.00
2019-05-13T21:27:14.660Z,1.00
2019-05-13T21:29:45.112Z,1.00
2019-05-13T21:32:17.639Z,1.00
2019-05-13T21:34:47.056Z,1.00
2019-05-13T21:37:18.408Z,1.00
2019-05-13T21:39:48.506Z,1.00
2019-05-13T21:42:18.666Z,1.00
2019-05-13T21:44:51.290Z,1.00
2019-05-13T21:47:22.094Z,1.00
2019-05-13T21:49:52.420Z,1.00
2019-05-13T21:52:23.963Z,1.00
2019-05-13T21:54:54.156Z,1.00
2019-05-13T21:57:24.288Z,1.00
2019-05-13T21:59:54.384Z,1.00
2019-05-13T22:02:25.542Z,1.00
2019-05-13T22:04:55.632Z,1.00
2019-05-13T22:07:25.832Z,1.00
2019-05-13T22:09:56.410Z,1.00
2019-05-13T22:12:26.679Z,1.00
2019-05-13T22:14:56.837Z,1.00
2019-05-13T22:17:27.073Z,1.00
2019-05-13T22:19:57.275Z,1.00
2019-05-13T22:22:27.629Z,1.00
2019-05-13T22:24:57.863Z,1.00
2019-05-13T22:27:28.197Z,1.00
2019-05-13T22:29:58.411Z,1.00
2019-05-13T22:32:28.482Z,1.00
2019-05-13T22:34:58.822Z,1.00
2019-05-13T22:37:31.265Z,1.00
2019-05-13T22:40:01.557Z,1.00
2019-05-13T22:42:34.382Z,1.00
2019-05-13T22:45:05.926Z,1.00
2019-05-13T22:47:36.254Z,1.00
2019-05-13T22:50:07.011Z,1.00
2019-05-13T22:52:37.383Z,1.00
2019-05-13T22:55:07.866Z,1.00
2019-05-13T22:57:38.244Z,1.00
2019-05-13T23:00:11.650Z,1.00
2019-05-13T23:02:42.589Z,1.00
2019-05-13T23:05:12.826Z,1.00
2019-05-13T23:07:43.048Z,1.00
2019-05-13T23:10:13.817Z,1.00
2019-05-13T23:12:43.879Z,1.00
2019-05-13T23:15:14.902Z,1.00
2019-05-13T23:17:45.163Z,1.00
2019-05-13T23:20:15.774Z,1.00
2019-05-13T23:22:46.203Z,1.00
2019-05-13T23:25:17.111Z,1.00
2019-05-13T23:27:47.507Z,1.00
2019-05-13T23:30:17.504Z,1.00
2019-05-13T23:32:47.588Z,1.00
2019-05-13T23:35:18.011Z,1.00
2019-05-13T23:37:48.463Z,1.00
2019-05-13T23:40:20.025Z,1.00
2019-05-13T23:42:51.842Z,1.00
2019-05-13T23:45:22.989Z,1.00
2019-05-13T23:47:53.091Z,1.00
2019-05-13T23:50:23.273Z,1.00
2019-05-13T23:52:53.706Z,1.00
2019-05-13T23:55:23.927Z,1.00
2019-05-13T23:57:54.077Z,1.00
